Time;durP1;ratioP1;P1;durP2;ratioP2;P2;SDS_P1;SDS_P2;PMS_P1;PMS_P2;Temp;Humidity;BMP_temperature;BMP_pressure;BME280_temperature;BME280_humidity;BME280_pressure;Samples;Min_cycle;Max_cycle;Signal;HPM_P1;HPM_P2
2024/04/11 00:02:18;;;;;;;0.00;0.00;;;10.10;94.10;;;;;;5424278;26;19999;-70
2024/04/11 00:04:43;;;;;;;0.03;0.03;;;10.00;99.90;;;;;;5423835;26;20010;-70
2024/04/11 00:07:09;;;;;;;0.00;0.00;;;10.10;99.90;;;;;;5424129;26;19988;-70
2024/04/11 00:09:35;;;;;;;0.00;0.00;;;10.30;99.90;;;;;;5426911;26;19987;-70
2024/04/11 00:12:00;;;;;;;0.00;0.00;;;9.90;99.90;;;;;;5424971;26;19991;-70
2024/04/11 00:14:27;;;;;;;0.00;0.00;;;10.00;99.90;;;;;;5425087;26;20061;-70
2024/04/11 00:16:53;;;;;;;0.03;0.03;;;9.90;91.60;;;;;;5451057;26;20000;-70
2024/04/11 00:19:19;;;;;;;0.40;0.10;;;9.80;99.90;;;;;;5424335;26;20002;-69
2024/04/11 00:21:44;;;;;;;0.30;0.25;;;9.90;91.70;;;;;;5422268;26;19991;-70
2024/04/11 00:24:10;;;;;;;0.00;0.00;;;9.90;92.10;;;;;;5424512;26;20003;-70
2024/04/11 00:26:36;;;;;;;0.00;0.00;;;;;;;;;;5424337;26;19987;-70
2024/04/11 00:29:02;;;;;;;0.00;0.00;;;9.60;96.10;;;;;;5424079;26;20000;-70
2024/04/11 00:31:28;;;;;;;0.20;0.20;;;9.80;97.10;;;;;;5424256;26;20207;-70
2024/04/11 00:33:54;;;;;;;0.00;0.00;;;;;;;;;;5450645;26;19994;-70
2024/04/11 00:36:22;;;;;;;0.00;0.00;;;9.70;91.70;;;;;;5423838;26;19988;-70
2024/04/11 00:38:48;;;;;;;0.00;0.00;;;;;;;;;;5427128;26;20193;-69
2024/04/11 00:41:14;;;;;;;0.10;0.10;;;9.60;91.90;;;;;;5429426;26;20315;-68
2024/04/11 00:43:40;;;;;;;0.05;0.05;;;;;;;;;;5423535;26;20003;-69
2024/04/11 00:46:06;;;;;;;0.22;0.22;;;;;;;;;;5423551;26;19991;-70
2024/04/11 00:48:32;;;;;;;0.10;0.10;;;;;;;;;;5426552;26;20012;-69
2024/04/11 00:50:59;;;;;;;0.22;0.10;;;9.80;92.20;;;;;;5448377;26;19992;-69
2024/04/11 00:53:27;;;;;;;0.00;0.00;;;9.60;92.20;;;;;;5407517;26;20351;-69
2024/04/11 00:55:54;;;;;;;0.00;0.00;;;;;;;;;;5425406;26;20301;-67
2024/04/11 00:58:22;;;;;;;0.10;0.10;;;9.60;92.30;;;;;;5426809;26;19991;-67
2024/04/11 01:00:48;;;;;;;0.00;0.00;;;;;;;;;;5426597;26;19996;-67
2024/04/11 01:03:14;;;;;;;0.00;0.00;;;9.40;94.40;;;;;;5422633;26;20047;-67
2024/04/11 01:05:40;;;;;;;0.00;0.00;;;;;;;;;;5434305;26;20024;-67
2024/04/11 01:08:07;;;;;;;0.00;0.00;;;9.60;95.80;;;;;;5447707;26;20002;-67
2024/04/11 01:10:35;;;;;;;0.00;0.00;;;9.50;92.60;;;;;;5426590;26;20284;-67
2024/04/11 01:13:02;;;;;;;0.00;0.00;;;9.40;97.30;;;;;;5426974;26;20020;-67
2024/04/11 01:15:28;;;;;;;1.60;0.25;;;;;;;;;;5426680;26;19991;-67
2024/04/11 01:17:54;;;;;;;0.30;0.30;;;;;;;;;;5427703;26;19998;-68
2024/04/11 01:20:21;;;;;;;0.20;0.20;;;;;;;;;;5434249;26;20102;-67
2024/04/11 01:22:48;;;;;;;0.10;0.10;;;;;;;;;;5452018;26;19998;-67
2024/04/11 01:25:15;;;;;;;0.30;0.25;;;;;;;;;;5443836;26;20104;-67
2024/04/11 01:27:40;;;;;;;0.00;0.00;;;9.50;94.40;;;;;;5430665;26;19995;-67
2024/04/11 01:30:08;;;;;;;0.10;0.10;;;9.70;93.10;;;;;;5449112;26;19988;-67
2024/04/11 01:32:34;;;;;;;0.00;0.00;;;9.50;93.60;;;;;;5426322;26;19988;-67
2024/04/11 01:34:59;;;;;;;0.22;0.22;;;9.30;97.10;;;;;;5426491;26;20111;-67
2024/04/11 01:37:31;;;;;;;0.00;0.00;;;9.60;98.00;;;;;;5426400;26;19987;-67
2024/04/11 01:39:57;;;;;;;0.00;0.00;;;9.20;95.70;;;;;;5442492;26;20009;-67
2024/04/11 01:42:24;;;;;;;0.00;0.00;;;9.40;93.30;;;;;;5438672;26;19992;-69
2024/04/11 01:44:50;;;;;;;0.68;0.17;;;;;;;;;;5426130;26;19987;-69
2024/04/11 01:47:17;;;;;;;0.10;0.10;;;;;;;;;;5426342;26;19995;-69
2024/04/11 01:49:43;;;;;;;0.35;0.28;;;;;;;;;;5429376;26;20218;-69
2024/04/11 01:52:09;;;;;;;0.00;0.00;;;9.40;93.50;;;;;;5426376;26;19992;-69
2024/04/11 01:54:37;;;;;;;0.00;0.00;;;9.30;99.90;;;;;;5426303;26;19999;-69
2024/04/11 01:57:03;;;;;;;0.00;0.00;;;;;;;;;;5445083;26;19990;-69
2024/04/11 01:59:29;;;;;;;0.00;0.00;;;;;;;;;;5435695;26;19992;-69
2024/04/11 02:01:57;;;;;;;0.20;0.20;;;9.30;93.70;;;;;;5426230;26;19991;-69
2024/04/11 02:04:27;;;;;;;0.00;0.00;;;;;;;;;;5428754;26;20211;-70
2024/04/11 02:06:53;;;;;;;0.60;0.38;;;;;;;;;;5425059;26;19999;-70
2024/04/11 02:09:22;;;;;;;0.00;0.00;;;;;;;;;;5426171;26;19992;-69
2024/04/11 02:11:51;;;;;;;0.15;0.15;;;9.20;95.70;;;;;;5431851;26;20228;-68
2024/04/11 02:14:18;;;;;;;0.00;0.00;;;9.30;94.00;;;;;;5465087;26;20005;-69
2024/04/11 02:16:44;;;;;;;0.00;0.00;;;9.10;97.90;;;;;;5427942;26;20007;-69
2024/04/11 02:19:12;;;;;;;0.03;0.03;;;11.20;94.70;;;;;;5425754;26;20215;-67
2024/04/11 02:21:40;;;;;;;0.00;0.00;;;9.20;94.10;;;;;;5425554;26;19999;-66
2024/04/11 02:24:07;;;;;;;0.00;0.00;;;9.30;99.90;;;;;;5425615;26;20007;-69
2024/04/11 02:26:36;;;;;;;0.00;0.00;;;9.20;94.20;;;;;;5425441;26;20295;-69
2024/04/11 02:29:04;;;;;;;0.00;0.00;;;9.20;94.30;;;;;;5425664;26;20003;-68
2024/04/11 02:31:33;;;;;;;0.15;0.10;;;9.20;94.30;;;;;;5457160;26;19986;-66
2024/04/11 02:34:00;;;;;;;0.47;0.47;;;;;;;;;;5425627;26;20011;-66
2024/04/11 02:36:32;;;;;;;0.00;0.00;;;9.20;94.50;;;;;;5425676;26;19984;-66
2024/04/11 02:38:59;;;;;;;0.00;0.00;;;9.40;98.60;;;;;;5431527;26;20069;-66
2024/04/11 02:41:27;;;;;;;0.00;0.00;;;9.00;95.90;;;;;;5425926;26;20066;-66
2024/04/11 02:43:55;;;;;;;0.00;0.00;;;9.00;98.20;;;;;;5425786;26;20045;-66
2024/04/11 02:46:21;;;;;;;0.10;0.10;;;;;;;;;;5434009;26;19995;-66
2024/04/11 02:48:50;;;;;;;0.10;0.10;;;8.20;94.60;;;;;;5454882;26;19995;-66
2024/04/11 02:51:17;;;;;;;;;;;9.10;95.10;;;;;;5429572;26;19996;-66
2024/04/11 02:53:43;;;;;;;0.00;0.00;;;;;;;;;;5426828;26;20146;-66
2024/04/11 02:56:11;;;;;;;0.03;0.03;;;9.30;95.40;;;;;;5425553;26;19988;-66
2024/04/11 02:58:40;;;;;;;0.98;0.60;;;8.90;99.90;;;;;;5421468;26;19999;-66
2024/04/11 03:01:08;;;;;;;0.00;0.00;;;9.00;95.10;;;;;;5440086;26;19987;-66
2024/04/11 03:03:35;;;;;;;0.00;0.00;;;9.00;95.10;;;;;;5425230;26;19995;-66
2024/04/11 03:06:20;;;;;;;0.00;0.00;;;9.10;97.50;;;;;;5441102;26;19991;-66
2024/04/11 03:08:50;;;;;;;0.00;0.00;;;9.00;95.30;;;;;;5424713;26;20004;-66
2024/04/11 03:11:16;;;;;;;0.00;0.00;;;;;;;;;;5424992;26;19991;-66
2024/04/11 03:13:42;;;;;;;0.47;0.20;;;9.00;98.90;;;;;;5424697;26;19999;-66
2024/04/11 03:16:11;;;;;;;0.00;0.00;;;;;;;;;;5424968;26;20048;-67
2024/04/11 03:18:39;;;;;;;0.00;0.00;;;9.00;98.70;;;;;;5428382;26;19995;-66
2024/04/11 03:21:08;;;;;;;0.75;0.10;;;;;;;;;;5424938;26;20004;-67
2024/04/11 03:23:34;;;;;;;0.00;0.00;;;;;;;;;;5440740;26;19994;-68
2024/04/11 03:26:00;;;;;;;0.10;0.10;;;;;;;;;;5428767;26;19988;-67
2024/04/11 03:28:29;;;;;;;0.00;0.00;;;;;;;;;;5424619;26;19991;-69
2024/04/11 03:30:55;;;;;;;;;;;9.00;95.60;;;;;;5417406;26;20028;-70
2024/04/11 03:33:21;;;;;;;0.45;0.40;;;;;;;;;;5431696;26;19920;-69
2024/04/11 03:35:54;;;;;;;0.00;0.00;;;8.90;96.80;;;;;;5430795;26;20040;-69
2024/04/11 03:38:20;;;;;;;0.35;0.35;;;8.90;97.00;;;;;;5430938;26;20053;-65
2024/04/11 03:40:59;;;;;;;2.65;0.45;;;8.90;95.90;;;;;;5436489;26;20000;-67
2024/04/11 03:43:27;;;;;;;0.00;0.00;;;8.90;95.90;;;;;;5424563;26;20069;-68
2024/04/11 03:46:18;;;;;;;0.00;0.00;;;8.80;99.90;;;;;;5424215;26;19996;-68
2024/04/11 03:48:46;;;;;;;0.00;0.00;;;8.90;96.00;;;;;;5423462;26;19991;-68
2024/04/11 03:51:22;;;;;;;0.00;0.00;;;8.90;96.00;;;;;;5424312;26;20005;-66
2024/04/11 03:53:57;;;;;;;0.00;0.00;;;8.90;95.90;;;;;;5424402;26;19992;-66
2024/04/11 03:56:27;;;;;;;0.00;0.00;;;8.90;96.00;;;;;;5440199;26;19998;-68
2024/04/11 03:58:57;;;;;;;0.47;0.35;;;8.90;96.10;;;;;;5424147;26;19999;-68
2024/04/11 04:01:27;;;;;;;1.38;0.82;;;8.90;99.90;;;;;;5427761;26;19991;-66
2024/04/11 04:03:56;;;;;;;0.00;0.00;;;8.80;97.60;;;;;;5424299;26;20003;-66
2024/04/11 04:06:22;;;;;;;0.17;0.10;;;;;;;;;;5424230;26;20028;-66
2024/04/11 04:08:50;;;;;;;0.00;0.00;;;8.70;96.20;;;;;;5423176;26;19998;-66
2024/04/11 04:11:17;;;;;;;0.00;0.00;;;8.90;96.30;;;;;;5424264;26;20008;-70
2024/04/11 04:13:43;;;;;;;0.00;0.00;;;9.10;96.30;;;;;;5439649;26;20484;-67
2024/04/11 04:16:11;;;;;;;0.20;0.20;;;8.80;98.60;;;;;;5424166;26;20003;-67
2024/04/11 04:18:37;;;;;;;0.00;0.00;;;8.90;96.30;;;;;;5423743;26;19995;-67
2024/04/11 04:21:04;;;;;;;0.00;0.00;;;8.90;96.30;;;;;;5423929;26;19998;-66
2024/04/11 04:23:30;;;;;;;0.00;0.00;;;8.90;96.30;;;;;;5423804;26;20003;-68
2024/04/11 04:26:19;;;;;;;0.00;0.00;;;8.90;96.30;;;;;;5423937;26;20002;-68
2024/04/11 04:28:45;;;;;;;0.20;0.10;;;8.90;99.90;;;;;;5423253;26;19996;-68
2024/04/11 04:31:22;;;;;;;0.00;0.00;;;9.20;98.40;;;;;;5438996;26;20108;-68
2024/04/11 04:33:52;;;;;;;0.00;0.00;;;9.40;99.90;;;;;;5423885;26;20027;-66
2024/04/11 04:36:25;;;;;;;0.10;0.10;;;8.90;99.90;;;;;;5438406;26;19991;-67
2024/04/11 04:38:53;;;;;;;0.10;0.10;;;9.10;96.20;;;;;;5423286;26;20510;-67
2024/04/11 04:41:20;;;;;;;0.10;0.10;;;9.10;96.20;;;;;;5438474;26;20002;-67
2024/04/11 04:43:55;;;;;;;0.00;0.00;;;9.20;96.20;;;;;;5423441;26;20003;-67
2024/04/11 04:46:32;;;;;;;0.28;0.28;;;9.10;99.30;;;;;;5427387;26;19995;-69
2024/04/11 04:49:00;;;;;;;0.00;0.00;;;9.80;96.60;;;;;;5423420;26;20001;-66
2024/04/11 04:51:31;;;;;;;0.00;0.00;;;;;;;;;;5433880;26;20006;-66
2024/04/11 04:53:59;;;;;;;0.00;0.00;;;9.40;95.80;;;;;;5438192;26;20111;-66
2024/04/11 04:56:28;;;;;;;0.37;0.37;;;9.60;99.90;;;;;;5407236;26;19998;-66
2024/04/11 04:58:54;;;;;;;;;;;9.50;95.70;;;;;;5423625;26;20000;-68
2024/04/11 05:01:23;;;;;;;0.00;0.00;;;9.70;95.30;;;;;;5428384;26;19937;-67
2024/04/11 05:03:50;;;;;;;0.00;0.00;;;9.70;95.10;;;;;;5430735;26;19990;-66
2024/04/11 05:06:16;;;;;;;0.00;0.00;;;9.60;99.90;;;;;;5431463;26;19987;-66
2024/04/11 05:08:46;;;;;;;0.00;0.00;;;9.80;95.10;;;;;;5423148;26;19990;-66
2024/04/11 05:11:14;;;;;;;0.00;0.00;;;9.90;95.70;;;;;;5423591;26;19991;-67
2024/04/11 05:13:44;;;;;;;0.00;0.00;;;10.00;94.90;;;;;;5455490;26;19987;-66
2024/04/11 05:16:12;;;;;;;0.00;0.00;;;10.00;94.80;;;;;;5437434;26;20249;-66
2024/04/11 05:18:39;;;;;;;0.00;0.00;;;10.00;99.90;;;;;;5422798;26;19991;-66
2024/04/11 05:21:06;;;;;;;0.10;0.10;;;;;;;;;;5434574;26;19995;-66
2024/04/11 05:23:32;;;;;;;0.00;0.00;;;;;;;;;;5426653;26;20045;-66
2024/04/11 05:26:07;;;;;;;0.00;0.00;;;10.30;98.80;;;;;;5422959;26;19987;-67
2024/04/11 05:28:36;;;;;;;0.28;0.28;;;10.50;94.00;;;;;;5422548;26;20007;-67
2024/04/11 05:31:05;;;;;;;0.13;0.13;;;10.50;93.70;;;;;;5422956;26;20047;-67
2024/04/11 05:33:36;;;;;;;0.00;0.00;;;10.60;93.80;;;;;;5422571;26;19992;-67
2024/04/11 05:36:06;;;;;;;0.00;0.00;;;10.70;93.60;;;;;;5422925;26;19992;-67
2024/04/11 05:38:38;;;;;;;0.00;0.00;;;10.80;93.80;;;;;;5438382;26;19998;-68
2024/04/11 05:41:10;;;;;;;0.45;0.45;;;11.10;96.10;;;;;;5432561;26;20000;-67
2024/04/11 05:43:39;;;;;;;0.20;0.20;;;10.80;93.30;;;;;;5425467;26;20008;-67
2024/04/11 05:46:10;;;;;;;0.10;0.10;;;10.90;93.10;;;;;;5425413;26;20138;-67
2024/04/11 05:48:40;;;;;;;0.10;0.10;;;;;;;;;;5424825;26;20033;-67
2024/04/11 05:51:10;;;;;;;0.00;0.00;;;10.90;94.70;;;;;;5425068;26;20084;-67
2024/04/11 05:53:36;;;;;;;0.00;0.00;;;11.20;92.70;;;;;;5424955;26;19995;-67
2024/04/11 05:56:08;;;;;;;0.00;0.00;;;11.20;92.70;;;;;;5441476;26;20002;-67
2024/04/11 05:58:35;;;;;;;0.00;0.00;;;11.00;92.50;;;;;;5423992;26;19992;-67
2024/04/11 06:01:05;;;;;;;0.00;0.00;;;11.30;92.40;;;;;;5433717;26;19996;-67
2024/04/11 06:03:34;;;;;;;0.30;0.10;;;11.60;97.20;;;;;;5425591;26;19996;-67
2024/04/11 06:06:00;;;;;;;0.03;0.03;;;11.50;99.00;;;;;;5426027;26;19999;-67
2024/04/11 06:08:25;;;;;;;0.10;0.10;;;11.40;95.10;;;;;;5425877;26;19987;-67
2024/04/11 06:10:51;;;;;;;0.10;0.10;;;11.60;92.00;;;;;;5425847;26;19988;-67
2024/04/11 06:13:21;;;;;;;0.15;0.03;;;;;;;;;;5445889;26;20146;-67
2024/04/11 06:15:48;;;;;;;0.55;0.30;;;;;;;;;;5425792;26;20039;-67
2024/04/11 06:18:16;;;;;;;0.40;0.25;;;;;;;;;;5425616;26;20023;-67
2024/04/11 06:20:43;;;;;;;0.00;0.00;;;;;;;;;;5425602;26;20003;-67
2024/04/11 06:23:09;;;;;;;0.00;0.00;;;;;;;;;;5425441;26;20001;-67
2024/04/11 06:25:38;;;;;;;0.00;0.00;;;11.90;91.30;;;;;;5440609;26;20046;-68
2024/04/11 06:28:04;;;;;;;0.10;0.10;;;12.00;91.20;;;;;;5442866;26;19996;-68
2024/04/11 06:30:38;;;;;;;0.10;0.10;;;11.70;91.20;;;;;;5441618;26;20181;-67
2024/04/11 06:33:11;;;;;;;0.20;0.20;;;12.30;90.60;;;;;;5448322;26;19994;-67
2024/04/11 06:35:37;;;;;;;0.00;0.00;;;12.40;90.60;;;;;;5445236;26;19991;-68
2024/04/11 06:38:08;;;;;;;0.10;0.10;;;;;;;;;;5413105;26;19999;-68
2024/04/11 06:40:35;;;;;;;0.05;0.05;;;12.50;90.30;;;;;;5437708;26;19990;-68
2024/04/11 06:43:03;;;;;;;0.00;0.00;;;;;;;;;;5436163;26;19999;-68
2024/04/11 06:45:30;;;;;;;0.55;0.40;;;12.90;93.10;;;;;;5432950;26;19999;-68
2024/04/11 06:47:56;;;;;;;0.10;0.10;;;12.40;92.70;;;;;;5450906;26;20204;-68
2024/04/11 06:50:23;;;;;;;0.88;0.20;;;12.50;93.10;;;;;;5425407;26;19996;-68
2024/04/11 06:52:51;;;;;;;0.03;0.03;;;;;;;;;;5424829;26;20049;-68
2024/04/11 06:55:19;;;;;;;0.17;0.13;;;12.90;89.40;;;;;;5439009;26;19987;-68
2024/04/11 06:57:45;;;;;;;0.00;0.00;;;13.10;88.30;;;;;;5425614;26;19996;-68
2024/04/11 07:00:35;;;;;;;0.10;0.10;;;13.20;87.90;;;;;;5438924;26;19988;-68
2024/04/11 07:03:16;;;;;;;0.13;0.13;;;13.20;87.80;;;;;;5434937;26;19999;-68
2024/04/11 07:06:01;;;;;;;0.00;0.00;;;13.30;87.30;;;;;;5431912;26;20004;-68
2024/04/11 07:08:31;;;;;;;0.10;0.10;;;13.40;97.90;;;;;;5436311;26;19995;-67
2024/04/11 07:11:23;;;;;;;0.32;0.17;;;13.50;86.80;;;;;;5440044;26;20302;-68
2024/04/11 07:13:50;;;;;;;0.10;0.10;;;12.40;85.50;;;;;;5437049;26;20030;-67
2024/04/11 07:16:25;;;;;;;0.03;0.03;;;13.60;86.10;;;;;;5424848;26;19995;-68
2024/04/11 07:18:57;;;;;;;0.10;0.10;;;14.10;91.10;;;;;;5410634;26;19991;-67
2024/04/11 07:21:30;;;;;;;0.28;0.10;;;13.80;95.10;;;;;;5441048;26;20003;-68
2024/04/11 07:24:00;;;;;;;0.35;0.35;;;13.70;85.30;;;;;;5424732;26;19991;-67
2024/04/11 07:26:30;;;;;;;0.20;0.20;;;13.90;85.40;;;;;;5424199;26;20000;-68
2024/04/11 07:28:59;;;;;;;0.00;0.00;;;14.00;85.30;;;;;;5426234;26;20023;-68
2024/04/11 07:31:26;;;;;;;0.00;0.00;;;;;;;;;;5424341;26;20280;-67
2024/04/11 07:33:52;;;;;;;0.55;0.55;;;14.00;84.90;;;;;;5424756;26;19992;-68
2024/04/11 07:36:22;;;;;;;1.88;0.30;;;;;;;;;;5424744;26;19998;-67
2024/04/11 07:38:48;;;;;;;0.28;0.20;;;14.00;85.80;;;;;;5439676;26;20054;-67
2024/04/11 07:41:18;;;;;;;0.25;0.25;;;14.00;87.40;;;;;;5424708;26;19996;-67
2024/04/11 07:43:45;;;;;;;2.50;0.15;;;;;;;;;;5424500;26;20019;-68
2024/04/11 07:46:13;;;;;;;0.00;0.00;;;14.20;86.10;;;;;;5432100;26;19994;-67
2024/04/11 07:48:51;;;;;;;0.10;0.10;;;14.00;94.00;;;;;;5436685;26;19999;-68
2024/04/11 07:51:21;;;;;;;0.00;0.00;;;14.20;85.20;;;;;;5435259;26;20195;-68
2024/04/11 07:53:48;;;;;;;0.38;0.38;;;14.20;85.30;;;;;;5432451;26;20018;-68
2024/04/11 07:56:21;;;;;;;0.10;0.10;;;14.30;84.70;;;;;;5429205;26;19987;-68
2024/04/11 07:58:58;;;;;;;0.10;0.10;;;14.30;84.50;;;;;;5424537;26;20039;-68
2024/04/11 08:01:31;;;;;;;1.00;0.30;;;14.10;89.30;;;;;;5437433;26;20022;-67
2024/04/11 08:04:01;;;;;;;0.00;0.00;;;14.40;84.20;;;;;;5429917;26;20129;-68
2024/04/11 08:06:28;;;;;;;0.38;0.20;;;14.50;84.50;;;;;;5423163;26;20196;-67
2024/04/11 08:08:56;;;;;;;0.30;0.13;;;14.70;83.50;;;;;;5424812;26;19991;-67
2024/04/11 08:11:22;;;;;;;0.20;0.20;;;;;;;;;;5439968;26;19999;-67
2024/04/11 08:13:48;;;;;;;0.10;0.10;;;;;;;;;;5457399;26;20314;-68
2024/04/11 08:16:17;;;;;;;0.10;0.10;;;;;;;;;;5452693;26;20049;-68
2024/04/11 08:18:43;;;;;;;;;;;15.10;81.90;;;;;;5424376;26;19996;-68
2024/04/11 08:21:08;;;;;;;0.00;0.00;;;15.30;93.30;;;;;;5423596;26;19928;-68
2024/04/11 08:23:39;;;;;;;0.10;0.10;;;15.70;93.30;;;;;;5423930;26;19983;-69
2024/04/11 08:26:05;;;;;;;0.15;0.15;;;15.60;81.00;;;;;;5418312;26;20001;-69
2024/04/11 08:28:37;;;;;;;0.25;0.20;;;15.70;80.50;;;;;;5397584;26;20011;-70
2024/04/11 08:31:03;;;;;;;0.08;0.08;;;15.90;79.90;;;;;;5426093;26;19996;-69
2024/04/11 08:33:29;;;;;;;0.10;0.10;;;16.00;79.70;;;;;;5428635;26;19992;-69
2024/04/11 08:35:57;;;;;;;0.15;0.15;;;16.20;79.00;;;;;;5424006;26;20467;-69
2024/04/11 08:38:23;;;;;;;0.98;0.28;;;16.50;90.90;;;;;;5433553;26;19987;-69
2024/04/11 08:40:49;;;;;;;0.10;0.10;;;16.80;91.00;;;;;;5422375;26;19996;-70
2024/04/11 08:43:27;;;;;;;0.30;0.30;;;16.70;91.20;;;;;;5439695;26;20002;-70
2024/04/11 08:45:52;;;;;;;0.13;0.13;;;16.60;77.50;;;;;;5450906;26;20002;-69
2024/04/11 08:48:20;;;;;;;0.00;0.00;;;16.60;77.60;;;;;;5441056;26;20009;-70
2024/04/11 08:50:49;;;;;;;0.15;0.15;;;16.70;77.10;;;;;;5440371;26;20006;-69
2024/04/11 08:53:18;;;;;;;1.73;0.65;;;16.70;77.30;;;;;;5424964;26;20163;-70
2024/04/11 08:55:45;;;;;;;0.20;0.20;;;16.60;76.90;;;;;;5420016;26;20014;-69
2024/04/11 08:58:11;;;;;;;0.00;0.00;;;16.60;77.80;;;;;;5421464;26;20005;-69
2024/04/11 09:00:42;;;;;;;0.20;0.20;;;16.70;78.00;;;;;;5424486;26;20102;-69
2024/04/11 09:03:12;;;;;;;0.65;0.30;;;16.70;78.10;;;;;;5440871;26;19988;-68
2024/04/11 09:05:42;;;;;;;0.22;0.20;;;16.80;78.00;;;;;;5425715;26;20697;-68
2024/04/11 09:08:10;;;;;;;0.85;0.40;;;16.80;91.70;;;;;;5423536;26;19999;-69
2024/04/11 09:10:38;;;;;;;0.00;0.00;;;16.90;77.00;;;;;;5423030;26;20196;-69
2024/04/11 09:13:15;;;;;;;0.20;0.20;;;17.00;76.70;;;;;;5423251;26;20253;-69
2024/04/11 09:15:41;;;;;;;0.85;0.75;;;17.20;76.00;;;;;;5423447;26;20004;-68
2024/04/11 09:18:07;;;;;;;0.20;0.20;;;;;;;;;;5426818;26;20203;-69
2024/04/11 09:20:34;;;;;;;0.20;0.20;;;17.80;74.10;;;;;;5442988;26;20073;-69
2024/04/11 09:23:00;;;;;;;0.00;0.00;;;18.30;88.70;;;;;;5426603;26;20215;-69
2024/04/11 09:25:34;;;;;;;0.15;0.08;;;18.00;72.80;;;;;;5426266;26;19991;-68
2024/04/11 09:28:00;;;;;;;1.35;0.08;;;17.90;73.10;;;;;;5430612;26;19996;-69
2024/04/11 09:30:32;;;;;;;0.95;0.60;;;17.90;74.10;;;;;;5431741;26;20146;-69
2024/04/11 09:33:04;;;;;;;0.25;0.17;;;18.00;73.90;;;;;;5445655;26;20207;-69
2024/04/11 09:35:40;;;;;;;0.17;0.17;;;18.20;87.20;;;;;;5432343;26;20147;-69
2024/04/11 09:38:12;;;;;;;0.70;0.57;;;18.50;84.80;;;;;;5436995;26;20208;-69
2024/04/11 09:40:50;;;;;;;0.10;0.10;;;18.70;84.80;;;;;;5446663;26;20020;-69
2024/04/11 09:43:17;;;;;;;0.38;0.22;;;18.70;84.70;;;;;;5452464;26;19997;-69
2024/04/11 09:45:50;;;;;;;0.20;0.17;;;19.00;85.60;;;;;;5447330;26;20146;-69
2024/04/11 09:48:21;;;;;;;0.25;0.13;;;19.20;83.20;;;;;;5418003;26;20200;-69
2024/04/11 09:50:48;;;;;;;0.20;0.20;;;19.60;68.70;;;;;;5425652;26;19988;-69
2024/04/11 09:53:26;;;;;;;0.50;0.50;;;19.60;80.30;;;;;;5431778;26;19987;-68
2024/04/11 09:56:02;;;;;;;0.30;0.30;;;19.80;76.80;;;;;;5443330;26;19987;-69
2024/04/11 09:58:29;;;;;;;0.55;0.25;;;20.20;80.50;;;;;;5450745;26;20116;-69
2024/04/11 10:01:09;;;;;;;0.20;0.20;;;20.00;79.70;;;;;;5448479;26;20007;-69
2024/04/11 10:03:40;;;;;;;0.20;0.20;;;20.30;79.10;;;;;;5445397;26;20110;-69
2024/04/11 10:06:24;;;;;;;2.15;0.85;;;20.00;79.00;;;;;;5450694;26;19991;-69
2024/04/11 10:08:50;;;;;;;0.17;0.17;;;20.10;79.40;;;;;;5421488;26;20001;-69
2024/04/11 10:11:20;;;;;;;0.22;0.22;;;20.30;67.10;;;;;;5456979;26;20040;-69
2024/04/11 10:13:49;;;;;;;0.00;0.00;;;20.40;66.90;;;;;;5425498;26;20011;-69
2024/04/11 10:16:30;;;;;;;0.10;0.10;;;20.40;79.30;;;;;;5451851;26;20050;-69
2024/04/11 10:19:04;;;;;;;0.10;0.10;;;20.60;78.90;;;;;;5445469;26;19999;-69
2024/04/11 10:21:35;;;;;;;0.60;0.30;;;20.40;72.90;;;;;;5446427;26;20002;-68
2024/04/11 10:24:23;;;;;;;0.20;0.20;;;20.70;79.60;;;;;;5449513;26;20383;-67
2024/04/11 10:26:54;;;;;;;0.05;0.05;;;20.50;78.60;;;;;;5454565;26;19997;-67
2024/04/11 10:29:26;;;;;;;0.43;0.32;;;20.40;78.20;;;;;;5431645;26;19996;-67
2024/04/11 10:31:56;;;;;;;0.20;0.10;;;20.50;78.90;;;;;;5417107;26;20358;-68
2024/04/11 10:34:34;;;;;;;0.15;0.15;;;20.30;78.60;;;;;;5432160;26;20228;-67
2024/04/11 10:37:12;;;;;;;0.85;0.57;;;20.40;78.50;;;;;;5425781;26;19992;-67
2024/04/11 10:39:39;;;;;;;0.05;0.05;;;20.50;78.80;;;;;;5425202;26;19999;-67
2024/04/11 10:42:10;;;;;;;0.30;0.30;;;20.40;66.10;;;;;;5428021;26;20003;-67
2024/04/11 10:44:36;;;;;;;1.65;0.70;;;;;;;;;;5421686;26;20213;-67
2024/04/11 10:47:07;;;;;;;1.40;0.25;;;20.50;78.70;;;;;;5425589;26;19996;-67
2024/04/11 10:49:42;;;;;;;0.43;0.15;;;20.70;77.90;;;;;;5425431;26;20004;-67
2024/04/11 10:52:14;;;;;;;0.00;0.00;;;20.50;77.90;;;;;;5425236;26;19998;-67
2024/04/11 10:54:42;;;;;;;0.90;0.75;;;20.90;77.90;;;;;;5425042;26;19992;-67
2024/04/11 10:57:14;;;;;;;0.00;0.00;;;21.10;79.20;;;;;;5405633;26;20186;-67
2024/04/11 10:59:53;;;;;;;1.05;0.30;;;21.20;76.70;;;;;;5431722;26;20200;-67
2024/04/11 11:02:23;;;;;;;0.15;0.15;;;21.30;74.90;;;;;;5454085;26;20003;-67
2024/04/11 11:04:50;;;;;;;0.60;0.20;;;;;;;;;;5431281;26;20000;-67
2024/04/11 11:07:21;;;;;;;0.35;0.13;;;21.20;63.80;;;;;;5424945;26;20012;-67
2024/04/11 11:09:53;;;;;;;2.65;0.40;;;21.20;75.40;;;;;;5423906;26;19991;-67
2024/04/11 11:12:19;;;;;;;0.68;0.15;;;21.40;74.80;;;;;;5425212;26;19992;-67
2024/04/11 11:14:48;;;;;;;0.13;0.13;;;21.50;74.90;;;;;;5460260;26;20453;-67
2024/04/11 11:17:19;;;;;;;;;;;21.50;63.60;;;;;;5440658;26;20010;-67
2024/04/11 11:19:49;;;;;;;0.20;0.20;;;21.80;68.40;;;;;;5454228;26;19921;-67
2024/04/11 11:22:18;;;;;;;0.15;0.15;;;21.80;74.10;;;;;;5425049;26;20007;-67
2024/04/11 11:24:44;;;;;;;0.28;0.28;;;22.00;73.60;;;;;;5424928;26;20444;-67
2024/04/11 11:27:11;;;;;;;0.45;0.40;;;22.00;73.50;;;;;;5425109;26;19998;-67
2024/04/11 11:29:42;;;;;;;0.17;0.17;;;;;;;;;;5428637;26;20440;-67
2024/04/11 11:32:18;;;;;;;0.30;0.30;;;22.00;73.10;;;;;;5425630;26;19992;-67
2024/04/11 11:34:46;;;;;;;0.85;0.50;;;22.10;73.50;;;;;;5432194;26;20973;-68
2024/04/11 11:37:13;;;;;;;0.38;0.32;;;22.00;73.00;;;;;;5453884;26;20025;-67
2024/04/11 11:39:43;;;;;;;1.02;0.40;;;22.20;61.30;;;;;;5439349;26;20043;-67
2024/04/11 11:42:10;;;;;;;0.55;0.30;;;22.10;73.00;;;;;;5438647;26;20002;-67
2024/04/11 11:47:37;;;;;;;0.40;0.40;;;22.40;71.90;;;;;;5424728;26;19991;-67
2024/04/11 11:50:16;;;;;;;0.28;0.28;;;22.60;71.40;;;;;;5443224;26;20003;-67
2024/04/11 11:52:44;;;;;;;0.60;0.28;;;22.70;71.50;;;;;;5453885;26;20006;-67
2024/04/11 11:55:16;;;;;;;0.40;0.32;;;22.70;70.80;;;;;;5424727;26;19999;-67
2024/04/11 11:57:43;;;;;;;0.20;0.20;;;22.80;70.80;;;;;;5404646;26;20529;-68
2024/04/11 12:00:22;;;;;;;0.45;0.43;;;23.00;71.00;;;;;;5424581;26;19992;-67
2024/04/11 12:02:50;;;;;;;0.52;0.52;;;23.00;70.80;;;;;;5434296;26;19991;-67
2024/04/11 12:05:23;;;;;;;0.47;0.40;;;23.00;70.30;;;;;;5413033;26;19987;-67
2024/04/11 12:07:57;;;;;;;0.20;0.20;;;23.10;69.90;;;;;;5426868;26;19996;-67
2024/04/11 12:13:18;;;;;;;0.10;0.10;;;23.30;69.70;;;;;;5424630;26;19999;-68
2024/04/11 12:15:48;;;;;;;0.40;0.40;;;23.40;69.90;;;;;;5408440;26;20000;-68
2024/04/11 12:18:22;;;;;;;0.20;0.20;;;23.60;68.60;;;;;;5424189;26;20043;-68
2024/04/11 12:20:51;;;;;;;0.70;0.50;;;23.40;68.60;;;;;;5424016;26;19996;-68
2024/04/11 12:23:19;;;;;;;0.75;0.30;;;23.40;59.00;;;;;;5424281;26;20007;-67
2024/04/11 12:25:44;;;;;;;0.30;0.30;;;23.40;59.00;;;;;;5433622;26;20033;-68
2024/04/11 12:28:19;;;;;;;0.20;0.20;;;23.40;69.20;;;;;;5441374;26;20244;-68
2024/04/11 12:30:59;;;;;;;1.15;0.40;;;23.30;68.60;;;;;;5423896;26;20052;-67
2024/04/11 12:33:28;;;;;;;0.10;0.10;;;23.20;68.70;;;;;;5423913;26;19992;-68
2024/04/11 12:35:58;;;;;;;0.20;0.20;;;23.20;59.10;;;;;;5432062;26;20012;-67
2024/04/11 12:38:29;;;;;;;0.30;0.30;;;23.10;69.00;;;;;;5423650;26;19991;-67
2024/04/11 12:40:59;;;;;;;0.95;0.63;;;22.90;69.00;;;;;;5437104;26;19996;-67
2024/04/11 12:43:28;;;;;;;1.73;0.32;;;23.00;69.20;;;;;;5452936;26;19994;-67
2024/04/11 12:45:55;;;;;;;5.45;1.08;;;23.80;60.90;;;;;;5399842;26;20204;-67
2024/04/11 12:48:23;;;;;;;0.57;0.32;;;23.10;59.20;;;;;;5430659;26;20002;-67
2024/04/11 12:50:59;;;;;;;0.85;0.65;;;23.40;58.00;;;;;;5410020;26;20141;-67
2024/04/11 12:53:27;;;;;;;0.63;0.63;;;23.50;58.70;;;;;;5429604;26;20006;-67
2024/04/11 12:55:55;;;;;;;0.10;0.10;;;23.60;67.80;;;;;;5423585;26;20003;-67
2024/04/11 12:58:24;;;;;;;0.65;0.40;;;23.60;58.00;;;;;;5423312;26;20272;-68
2024/04/11 13:01:02;;;;;;;0.43;0.43;;;23.80;68.10;;;;;;5439509;26;20003;-67
2024/04/11 13:03:52;;;;;;;0.50;0.50;;;23.80;58.20;;;;;;5428534;26;20210;-67
2024/04/11 13:06:29;;;;;;;0.32;0.32;;;24.40;57.80;;;;;;5422878;26;20498;-68
2024/04/11 13:09:20;;;;;;;0.45;0.45;;;26.30;56.30;;;;;;5423139;26;20197;-69
2024/04/11 13:11:48;;;;;;;0.60;0.45;;;29.40;52.10;;;;;;5315896;26;20199;-67
2024/04/11 13:14:18;;;;;;;0.52;0.45;;;32.20;46.90;;;;;;5315960;26;20151;-70
2024/04/11 13:17:00;;;;;;;0.65;0.35;;;32.60;46.90;;;;;;5324888;26;19996;-67
2024/04/11 13:19:27;;;;;;;0.80;0.60;;;32.90;45.70;;;;;;5324810;26;20005;-67
2024/04/11 13:22:02;;;;;;;1.40;0.73;;;33.10;45.80;;;;;;5313543;26;20009;-67
2024/04/11 13:24:42;;;;;;;0.35;0.35;;;32.50;45.60;;;;;;5313736;26;19993;-67
2024/04/11 13:27:10;;;;;;;0.40;0.40;;;30.80;47.10;;;;;;5315029;26;20102;-66